Startpagina
METAR-TAF:

METAR-TAF

Vliegvelden :

Wallis, Frankrijk

breedte: 13-14S, lengte: 176-10W, hoogte: 23 m

METAR: ontbreekt

Tijdstip: 14:21 (02:21 UTC)

Verwachting

Dit bericht is 3 uur en het 21 minuten geleden gemaakt, om 23:00 UTC
Verwachting geldig van 27 om 00 UTC tot 27 om 24 UTC
Wind 12 kt uit het oostzuidoosten
Zicht 10 km of meer
Weinig wolken op 1800 ft
Verspreide wolken op 2500 ft
Tijdelijke
van 27 om 06 UTC tot 27 om 18 UTC
Verspreide wolken op 2000 ft, Stapelwolken.
regenbuien

TAF: NLWW 262300Z 2700/2724 12012KT 9999 FEW018 SCT025 TEMPO 2706/2718 SHRA SCT020TCU

Waarnemingen en weersverwachtingen van meer dan 4000 vliegvelden (METAR en TAF).

De beschikbare stations zijn de gele en rode punten op de kaart.

Ga met uw muis naar het station om de naam te zien.

Klik dan om waarnemingen en weersverwachtingen te zien.

kaart wijzigen: klik op de groene knoppen met een zwart kruis om in te zoomen, op de groene knop met een streepje om uit te zoomen of op de groene pijlen voor aangrenzende kaarten.


METAR-TAF: